Weather History for Holdrege, NE

Change the Weather History Date:

Saturday, January 4, 2014

  Actual Average Record
Temperature  
Mean Temperature 26 °F -  
Max Temperature 39 °F 29 °F 62 °F (1956)
Min Temperature 13 °F 11 °F -15 °F (1974)
Degree Days  
Heating Degree Days 39    
Moisture  
Dew Point 15 °F    
Average Humidity 64    
Maximum Humidity 81    
Minimum Humidity 45    
Precipitation  
Precipitation 0.00 in - - ()
Sea Level Pressure  
Sea Level Pressure 29.93 in    
Wind  
Wind Speed 15 mph (North)    
Max Wind Speed 26 mph    
Max Gust Speed 34 mph    
Visibility 10 miles    
Events      
Averages and records for this station are not official NWS values.
T = Trace of Precipitation, MM = Missing Value Source: NWS Daily Summary

Daily Weather History Graph

Daily Weather History Graph

Search for Another Location

Airport:

Trip Planner

Search our weather history database for the weather conditions in past years. The results will help you decide how hot, cold, wet, or windy it might be!

Date:

Astronomy

Jan. 04, 2014 Rise Set
Actual Time 8:00 AM CST 5:24 PM CST
Civil Twilight 7:30 AM CST 5:54 PM CST
Nautical Twilight 6:56 AM CST 6:28 PM CST
Astronomical Twilight 6:23 AM CST 7:01 PM CST
Moon 10:06 AM CST (1/4) 9:46 PM CST (1/4)
Length of Visible Light 10h 24m
Length of Day
9h 23m
Waxing Crescent, 15% of the Moon is Illuminated
Jan 4
Waxing Crescent
Jan 7
First Quarter
Jan 15
Full
Jan 23
Last Quarter
Jan 30
New

Hourly Weather History & Observations

Time (CST) Temp. Windchill Dew Point Humidity Pressure Visibility Wind Dir Wind Speed Gust Speed Precip Events Conditions
12:15 AM 34.0 °F 31.0 °F 27.9 °F 78% 29.62 in 10.0 mi North 3.5 mph - N/A   Clear
12:35 AM 34.2 °F 30.0 °F 28.2 °F 79% 29.62 in 10.0 mi North 4.6 mph - N/A   Clear
12:55 AM 35.2 °F 28.1 °F 28.4 °F 76% 29.62 in 10.0 mi North 9.2 mph - N/A   Clear
1:15 AM 36.7 °F 29.9 °F 29.1 °F 74% 29.64 in 10.0 mi NNW 9.2 mph - N/A   Clear
1:35 AM 37.0 °F 29.8 °F 29.8 °F 75% 29.65 in 10.0 mi NNW 10.4 mph - N/A   Clear
1:55 AM 34.9 °F 29.0 °F 28.6 °F 78% 29.67 in 10.0 mi NW 6.9 mph - N/A   Clear
2:15 AM 33.4 °F 27.3 °F 28.0 °F 81% 29.67 in 10.0 mi NNW 6.9 mph - N/A   Clear
2:35 AM 35.6 °F 29.9 °F 29.3 °F 78% 29.67 in 10.0 mi North 6.9 mph - N/A   Clear
2:55 AM 36.3 °F 30.1 °F 29.1 °F 75% 29.69 in 10.0 mi NNW 8.1 mph - N/A   Clear
3:15 AM 36.1 °F 30.6 °F 29.1 °F 76% 29.69 in 10.0 mi NNW 6.9 mph - N/A   Clear
3:35 AM 37.2 °F 30.0 °F 28.4 °F 70% 29.69 in 10.0 mi North 10.4 mph - N/A   Clear
3:55 AM 39.2 °F 30.8 °F 28.4 °F 65% 29.70 in 10.0 mi North 15.0 mph 19.6 mph N/A   Scattered Clouds
4:15 AM 39.6 °F 30.6 °F 28.9 °F 66% 29.71 in 10.0 mi North 17.3 mph 20.7 mph N/A   Clear
4:35 AM 38.7 °F 29.8 °F 29.3 °F 69% 29.73 in 10.0 mi North 16.1 mph 21.9 mph N/A   Clear
4:55 AM 36.5 °F 25.7 °F 27.1 °F 69% 29.75 in 10.0 mi North 20.7 mph 32.2 mph N/A   Clear
5:15 AM 34.3 °F 22.3 °F 24.8 °F 68% 29.77 in 10.0 mi North 23.0 mph 32.2 mph N/A   Clear
5:35 AM 32.9 °F 22.8 °F 24.1 °F 70% 29.78 in 10.0 mi North 15.0 mph 25.3 mph N/A   Clear
5:55 AM 32.0 °F 21.2 °F 23.9 °F 72% 29.80 in 10.0 mi North 16.1 mph 23.0 mph N/A   Clear
6:15 AM 31.8 °F 19.3 °F 23.9 °F 73% 29.82 in 10.0 mi North 21.9 mph 31.1 mph N/A   Mostly Cloudy
6:35 AM 29.3 °F 15.6 °F 21.4 °F 72% 29.82 in 10.0 mi North 23.0 mph 34.5 mph N/A   Mostly Cloudy
6:55 AM 28.2 °F 13.9 °F 20.3 °F 72% 29.82 in 10.0 mi North 24.2 mph 31.1 mph N/A   Scattered Clouds
7:15 AM 27.7 °F 13.5 °F 19.8 °F 72% 29.83 in 10.0 mi North 23.0 mph 31.1 mph N/A   Clear
7:35 AM 26.6 °F 11.1 °F 18.5 °F 71% 29.84 in 10.0 mi North 26.5 mph 33.4 mph N/A   Clear
7:55 AM 25.7 °F 11.5 °F 17.8 °F 72% 29.86 in 10.0 mi North 20.7 mph 31.1 mph N/A   Scattered Clouds
8:15 AM 24.8 °F 9.0 °F 17.2 °F 73% 29.88 in 10.0 mi North 25.3 mph 29.9 mph N/A   Scattered Clouds
8:35 AM 24.8 °F 9.3 °F 16.7 °F 71% 29.90 in 10.0 mi North 24.2 mph 33.4 mph N/A   Mostly Cloudy
8:55 AM 24.6 °F 9.7 °F 16.9 °F 72% 29.92 in 10.0 mi North 21.9 mph 28.8 mph N/A   Overcast
9:15 AM 24.1 °F 9.4 °F 16.7 °F 73% 29.94 in 10.0 mi North 20.7 mph 27.6 mph N/A   Overcast
9:35 AM 23.5 °F 8.0 °F 16.0 °F 73% 29.98 in 10.0 mi North 23.0 mph 28.8 mph N/A   Overcast
9:55 AM 23.0 °F 8.7 °F 15.6 °F 73% 29.99 in 10.0 mi North 18.4 mph 25.3 mph N/A   Overcast
10:15 AM 23.2 °F 8.6 °F 16.0 °F 74% 29.98 in 10.0 mi North 19.6 mph 27.6 mph N/A   Overcast
10:35 AM 23.5 °F 8.7 °F 16.5 °F 75% 30.01 in 10.0 mi North 20.7 mph 24.2 mph N/A   Overcast
10:55 AM 23.9 °F 9.1 °F 16.5 °F 73% 30.01 in 10.0 mi North 20.7 mph 27.6 mph N/A   Overcast
11:15 AM 24.6 °F 9.4 °F 16.5 °F 71% 29.98 in 10.0 mi North 23.0 mph 27.6 mph N/A   Mostly Cloudy
11:35 AM 25.7 °F 11.2 °F 16.9 °F 69% 29.97 in 10.0 mi North 21.9 mph 28.8 mph N/A   Scattered Clouds
11:55 AM 25.3 °F 12.6 °F 16.3 °F 69% 29.97 in 10.0 mi North 16.1 mph 26.5 mph N/A   Scattered Clouds
12:15 PM 24.8 °F 10.3 °F 16.2 °F 70% 29.98 in 10.0 mi North 20.7 mph 25.3 mph N/A   Overcast
12:35 PM 25.7 °F 12.3 °F 16.7 °F 69% 29.99 in 10.0 mi North 18.4 mph 24.2 mph N/A   Overcast
12:55 PM 25.7 °F 11.9 °F 15.6 °F 66% 29.98 in 10.0 mi North 19.6 mph 25.3 mph N/A   Overcast
1:15 PM 26.2 °F 11.9 °F 14.5 °F 61% 29.97 in 10.0 mi North 21.9 mph 28.8 mph N/A   Mostly Cloudy
1:35 PM 25.9 °F 11.7 °F 14.2 °F 61% 29.97 in 10.0 mi North 20.7 mph 27.6 mph N/A   Mostly Cloudy
1:55 PM 26.6 °F 13.1 °F 15.1 °F 62% 29.97 in 10.0 mi North 19.6 mph 25.3 mph N/A   Mostly Cloudy
2:15 PM 26.4 °F 12.5 °F 15.1 °F 62% 29.96 in 10.0 mi North 20.7 mph 26.5 mph N/A   Overcast
2:35 PM 27.0 °F 13.2 °F 14.9 °F 60% 29.96 in 10.0 mi North 20.7 mph 26.5 mph N/A   Overcast
2:55 PM 26.6 °F 14.3 °F 13.8 °F 59% 29.97 in 10.0 mi North 16.1 mph 26.5 mph N/A   Mostly Cloudy
3:15 PM 25.7 °F 12.3 °F 13.5 °F 60% 29.97 in 10.0 mi North 18.4 mph - N/A   Mostly Cloudy
3:35 PM 25.3 °F 11.0 °F 12.0 °F 57% 29.99 in 10.0 mi North 20.7 mph 26.5 mph N/A   Mostly Cloudy
3:55 PM 24.8 °F 11.5 °F 11.3 °F 57% 30.00 in 10.0 mi North 17.3 mph 24.2 mph N/A   Overcast
4:15 PM 24.6 °F 11.3 °F 9.1 °F 52% 30.01 in 10.0 mi North 17.3 mph 24.2 mph N/A   Overcast
4:35 PM 24.3 °F 10.8 °F 7.9 °F 50% 30.02 in 10.0 mi North 17.3 mph 23.0 mph N/A   Overcast
4:55 PM 24.3 °F 10.8 °F 7.0 °F 48% 30.02 in 10.0 mi North 17.3 mph 21.9 mph N/A   Overcast
5:15 PM 23.9 °F 9.9 °F 7.0 °F 49% 30.04 in 10.0 mi North 18.4 mph 24.2 mph N/A   Overcast
5:35 PM 23.4 °F 10.1 °F 6.4 °F 48% 30.03 in 10.0 mi North 16.1 mph - N/A   Overcast
5:55 PM 23.0 °F 10.6 °F 6.8 °F 50% 30.05 in 10.0 mi North 13.8 mph 20.7 mph N/A   Overcast
6:15 PM 22.8 °F 8.1 °F 6.1 °F 49% 30.06 in 10.0 mi North 19.6 mph 25.3 mph N/A   Overcast
6:35 PM 22.6 °F 7.9 °F 5.0 °F 47% 30.08 in 10.0 mi North 19.6 mph - N/A   Overcast
6:55 PM 22.5 °F 6.9 °F 5.2 °F 48% 30.08 in 10.0 mi North 21.9 mph 26.5 mph N/A   Overcast
7:15 PM 21.9 °F 7.3 °F 4.6 °F 48% 30.09 in 10.0 mi North 18.4 mph 25.3 mph N/A   Overcast
7:35 PM 21.6 °F 6.5 °F 4.5 °F 48% 30.10 in 10.0 mi North 19.6 mph - N/A   Overcast
7:55 PM 20.3 °F 4.4 °F 2.1 °F 45% 30.11 in 10.0 mi North 20.7 mph 27.6 mph N/A   Overcast
8:15 PM 20.1 °F 5.4 °F 2.5 °F 46% 30.12 in 10.0 mi North 17.3 mph 26.5 mph N/A   Overcast
8:35 PM 19.4 °F 3.6 °F 3.2 °F 49% 30.13 in 10.0 mi North 19.6 mph 24.2 mph N/A   Overcast
8:55 PM 19.2 °F 3.8 °F 3.7 °F 51% 30.13 in 10.0 mi North 18.4 mph 25.3 mph N/A   Overcast
9:15 PM 18.5 °F 2.4 °F 4.1 °F 54% 30.13 in 10.0 mi North 19.6 mph - N/A   Overcast
9:35 PM 18.1 °F 2.4 °F 3.9 °F 54% 30.14 in 10.0 mi NNE 18.4 mph 25.3 mph N/A   Mostly Cloudy
9:55 PM 17.2 °F 1.2 °F 2.8 °F 53% 30.16 in 10.0 mi North 18.4 mph 26.5 mph N/A   Scattered Clouds
10:15 PM 16.7 °F -0.3 °F 2.8 °F 55% 30.16 in 10.0 mi North 20.7 mph - N/A   Clear
10:35 PM 15.8 °F -0.6 °F 1.2 °F 53% 30.16 in 10.0 mi North 18.4 mph - N/A   Clear
10:55 PM 14.9 °F -0.8 °F 1.0 °F 54% 30.17 in 10.0 mi North 16.1 mph 24.2 mph N/A   Clear
11:15 PM 14.0 °F -1.4 °F 0.9 °F 56% 30.17 in 10.0 mi North 15.0 mph - N/A   Mostly Cloudy
11:35 PM 13.8 °F -3.2 °F 0.1 °F 55% 30.18 in 10.0 mi NNE 18.4 mph 23.0 mph N/A   Overcast
11:55 PM 13.5 °F -0.9 °F 0.5 °F 56% 30.18 in 10.0 mi North 12.7 mph - N/A   Scattered Clouds